Time;durP1;ratioP1;P1;durP2;ratioP2;P2;SDS_P1;SDS_P2;PMS_P1;PMS_P2;Temp;Humidity;BMP_temperature;BMP_pressure;BME280_temperature;BME280_humidity;BME280_pressure;Samples;Min_cycle;Max_cycle;Signal;HPM_P1;HPM_P2
2023/07/07 00:02:18;;;;;;;2.55;0.95;;;15.20;99.90;;;;;;4840650;29;20028;-69
2023/07/07 00:04:44;;;;;;;2.15;1.20;;;15.20;99.90;;;;;;4846089;29;20040;-69
2023/07/07 00:07:10;;;;;;;2.05;1.20;;;15.10;99.90;;;;;;4834710;29;20053;-69
2023/07/07 00:09:37;;;;;;;3.60;1.05;;;15.10;99.90;;;;;;4828959;29;20056;-70
2023/07/07 00:12:03;;;;;;;2.38;1.35;;;15.10;99.90;;;;;;4828909;29;20044;-69
2023/07/07 00:14:30;;;;;;;1.92;1.30;;;15.00;99.90;;;;;;4832718;29;20041;-69
2023/07/07 00:17:01;;;;;;;3.17;1.35;;;15.00;99.90;;;;;;4818429;29;20041;-70
2023/07/07 00:19:32;;;;;;;2.85;1.27;;;14.90;99.90;;;;;;4836394;29;20914;-69
2023/07/07 00:22:03;;;;;;;2.13;1.40;;;15.00;99.90;;;;;;4837245;29;20041;-70
2023/07/07 00:24:29;;;;;;;2.55;1.65;;;14.90;99.90;;;;;;4842997;29;20384;-69
2023/07/07 00:26:56;;;;;;;3.08;1.88;;;14.90;99.90;;;;;;4834251;29;20029;-69
2023/07/07 00:29:22;;;;;;;4.47;1.95;;;14.90;99.90;;;;;;4830655;29;20045;-69
2023/07/07 00:31:49;;;;;;;4.93;1.90;;;14.80;99.90;;;;;;4826188;29;20040;-69
2023/07/07 00:34:15;;;;;;;3.85;1.92;;;14.80;99.90;;;;;;4831878;29;20041;-69
2023/07/07 00:36:41;;;;;;;3.17;1.75;;;14.80;99.90;;;;;;4804296;29;20037;-69
2023/07/07 00:39:08;;;;;;;3.67;2.72;;;14.80;99.90;;;;;;4832840;29;20045;-69
2023/07/07 00:41:34;;;;;;;3.85;1.95;;;14.80;99.90;;;;;;4842677;29;20447;-69
2023/07/07 00:44:10;;;;;;;4.75;2.10;;;14.80;99.90;;;;;;4842236;29;20049;-69
2023/07/07 00:46:38;;;;;;;3.10;2.08;;;14.80;99.90;;;;;;4820665;29;20392;-69
2023/07/07 00:49:19;;;;;;;3.13;1.92;;;14.80;99.90;;;;;;4826975;29;20052;-69
2023/07/07 00:51:53;;;;;;;2.70;1.40;;;14.70;99.90;;;;;;4825853;29;20041;-69
2023/07/07 00:54:25;;;;;;;3.92;2.00;;;14.80;99.90;;;;;;4832236;29;20059;-69
2023/07/07 00:56:54;;;;;;;2.78;1.60;;;14.80;99.90;;;;;;4814596;29;20060;-69
2023/07/07 00:59:25;;;;;;;4.38;1.50;;;14.80;99.90;;;;;;4830202;29;20400;-69
2023/07/07 01:01:58;;;;;;;2.03;1.23;;;14.80;99.90;;;;;;4836118;29;20040;-69
2023/07/07 01:04:25;;;;;;;3.38;1.40;;;14.80;99.90;;;;;;4841967;29;20396;-70
2023/07/07 01:06:57;;;;;;;3.15;1.60;;;14.80;99.90;;;;;;4835635;29;20044;-70
2023/07/07 01:09:23;;;;;;;3.20;1.58;;;14.70;99.90;;;;;;4829320;29;20029;-70
2023/07/07 01:11:49;;;;;;;4.05;2.40;;;14.70;99.90;;;;;;4827117;29;20669;-70
2023/07/07 01:14:24;;;;;;;4.65;3.28;;;14.60;99.90;;;;;;4831045;29;20041;-70
2023/07/07 01:17:05;;;;;;;12.82;9.35;;;14.60;99.90;;;;;;4831489;29;20057;-69
2023/07/07 01:19:48;;;;;;;14.32;9.60;;;14.60;99.90;;;;;;4830405;29;20041;-70
2023/07/07 01:22:23;;;;;;;9.77;6.68;;;14.50;99.90;;;;;;4837443;29;20052;-70
2023/07/07 01:25:12;;;;;;;7.18;4.45;;;14.50;99.90;;;;;;4842162;29;20052;-70
2023/07/07 01:27:53;;;;;;;4.85;3.67;;;14.50;99.90;;;;;;4835082;29;20044;-70
2023/07/07 01:30:45;;;;;;;5.53;3.72;;;14.50;99.90;;;;;;4828804;29;20040;-69
2023/07/07 01:33:16;;;;;;;6.10;2.90;;;14.40;99.90;;;;;;4808878;29;20524;-69
2023/07/07 01:35:42;;;;;;;3.88;2.15;;;14.40;99.90;;;;;;4829518;29;20305;-71
2023/07/07 01:38:48;;;;;;;4.13;1.85;;;14.40;99.90;;;;;;4816581;29;20448;-69
2023/07/07 01:41:30;;;;;;;3.10;1.38;;;14.40;99.90;;;;;;4803574;29;20052;-70
2023/07/07 01:44:16;;;;;;;2.92;1.65;;;14.30;99.90;;;;;;4808001;29;20050;-70
2023/07/07 01:46:51;;;;;;;3.05;1.67;;;14.30;99.90;;;;;;4828835;29;20063;-69
2023/07/07 01:49:29;;;;;;;2.47;1.42;;;14.30;99.90;;;;;;4830350;29;20104;-69
2023/07/07 01:52:05;;;;;;;3.42;1.70;;;14.30;99.90;;;;;;4824093;29;20078;-69
2023/07/07 01:54:36;;;;;;;2.03;1.50;;;14.20;99.90;;;;;;4829680;29;20068;-68
2023/07/07 01:57:04;;;;;;;6.00;1.83;;;14.20;99.90;;;;;;4812587;29;20095;-69
2023/07/07 01:59:31;;;;;;;1.70;1.40;;;14.20;99.90;;;;;;4797097;29;20057;-69
2023/07/07 02:01:57;;;;;;;1.90;1.30;;;14.20;99.90;;;;;;4829647;29;20048;-69
2023/07/07 02:04:24;;;;;;;3.00;1.88;;;14.20;99.90;;;;;;4826306;29;20622;-69
2023/07/07 02:06:50;;;;;;;4.63;2.22;;;14.20;99.90;;;;;;4841096;29;20048;-69
2023/07/07 02:09:18;;;;;;;4.22;2.28;;;14.20;99.90;;;;;;4813073;29;20050;-69
2023/07/07 02:11:44;;;;;;;2.97;1.83;;;14.20;99.90;;;;;;4808872;29;21598;-69
2023/07/07 02:14:11;;;;;;;4.50;2.60;;;14.10;99.90;;;;;;4815000;29;20045;-69
2023/07/07 02:16:37;;;;;;;4.13;2.05;;;14.10;99.90;;;;;;4828649;29;20045;-69
2023/07/07 02:19:03;;;;;;;3.58;1.50;;;14.00;99.90;;;;;;4795233;29;20840;-69
2023/07/07 02:21:31;;;;;;;3.58;1.70;;;14.00;99.90;;;;;;4830650;29;20033;-69
2023/07/07 02:23:57;;;;;;;3.35;2.25;;;14.00;99.90;;;;;;4824832;29;20049;-69
2023/07/07 02:26:24;;;;;;;4.78;2.20;;;14.00;99.90;;;;;;4842796;29;20056;-69
2023/07/07 02:28:50;;;;;;;3.22;1.90;;;14.00;99.90;;;;;;4826585;29;20045;-69
2023/07/07 02:31:17;;;;;;;2.67;2.47;;;14.00;99.90;;;;;;4827257;29;20049;-69
2023/07/07 02:33:43;;;;;;;4.93;2.33;;;13.90;99.90;;;;;;4827744;29;20052;-69
2023/07/07 02:36:11;;;;;;;2.58;1.63;;;13.90;99.90;;;;;;4833709;29;20048;-69
2023/07/07 02:38:37;;;;;;;4.53;2.28;;;13.90;99.90;;;;;;4817880;29;20042;-69
2023/07/07 02:41:04;;;;;;;4.00;2.13;;;13.90;99.90;;;;;;4818234;29;20103;-69
2023/07/07 02:43:31;;;;;;;3.78;1.98;;;13.80;99.90;;;;;;4825295;29;20061;-69
2023/07/07 02:45:57;;;;;;;3.50;1.92;;;13.80;99.90;;;;;;4829424;29;21912;-69
2023/07/07 02:48:23;;;;;;;2.97;1.88;;;13.80;99.90;;;;;;4838436;29;22705;-69
2023/07/07 02:50:57;;;;;;;3.35;2.30;;;13.80;99.90;;;;;;4815169;29;21598;-69
2023/07/07 02:53:26;;;;;;;2.78;1.73;;;13.80;99.90;;;;;;4827693;29;20041;-69
2023/07/07 02:55:53;;;;;;;2.85;2.20;;;13.80;99.90;;;;;;4849372;29;20044;-69
2023/07/07 02:58:21;;;;;;;2.88;1.42;;;13.70;99.90;;;;;;4833743;29;20707;-69
2023/07/07 03:00:48;;;;;;;2.78;1.80;;;13.70;99.90;;;;;;4815827;29;20056;-69
2023/07/07 03:03:15;;;;;;;3.42;1.88;;;13.70;99.90;;;;;;4837645;29;20057;-69
2023/07/07 03:05:42;;;;;;;2.88;1.50;;;13.70;99.90;;;;;;4847482;29;20056;-69
2023/07/07 03:08:09;;;;;;;4.20;2.40;;;13.70;99.90;;;;;;4840867;29;21355;-69
2023/07/07 03:10:38;;;;;;;4.03;1.83;;;13.70;99.90;;;;;;4829982;29;20034;-69
2023/07/07 03:13:05;;;;;;;3.38;1.92;;;13.70;99.90;;;;;;4827069;29;20384;-69
2023/07/07 03:15:41;;;;;;;3.60;2.70;;;13.70;99.90;;;;;;4805087;29;20883;-69
2023/07/07 03:18:23;;;;;;;3.60;2.88;;;13.60;99.90;;;;;;4824531;29;20069;-68
2023/07/07 03:20:55;;;;;;;4.50;2.78;;;13.70;99.90;;;;;;4829939;29;20036;-69
2023/07/07 03:23:25;;;;;;;4.10;2.30;;;13.70;99.90;;;;;;4821605;29;20056;-68
2023/07/07 03:25:53;;;;;;;3.63;2.95;;;13.70;99.90;;;;;;4828937;29;20048;-69
2023/07/07 03:28:21;;;;;;;3.38;2.55;;;13.70;99.90;;;;;;4842023;29;20044;-69
2023/07/07 03:30:48;;;;;;;3.05;2.13;;;13.70;99.90;;;;;;4815381;29;20334;-69
2023/07/07 03:33:17;;;;;;;4.35;2.85;;;13.70;99.90;;;;;;4811683;29;20580;-69
2023/07/07 03:35:46;;;;;;;3.65;2.17;;;13.60;99.90;;;;;;4832056;29;20037;-69
2023/07/07 03:38:14;;;;;;;3.08;2.08;;;13.60;99.90;;;;;;4834351;29;20045;-69
2023/07/07 03:40:48;;;;;;;2.80;2.35;;;13.60;99.90;;;;;;4800196;29;20610;-69
2023/07/07 03:43:18;;;;;;;3.55;2.28;;;13.60;99.90;;;;;;4831987;29;20905;-69
2023/07/07 03:45:45;;;;;;;4.15;2.55;;;13.60;99.90;;;;;;4828748;29;20037;-69
2023/07/07 03:48:13;;;;;;;4.00;2.35;;;13.50;99.90;;;;;;4846056;29;20037;-69
2023/07/07 03:50:40;;;;;;;3.47;2.63;;;13.50;99.90;;;;;;4818358;29;20041;-70
2023/07/07 03:53:06;;;;;;;4.82;4.35;;;13.50;99.90;;;;;;4812391;29;20192;-70
2023/07/07 03:55:34;;;;;;;7.28;6.47;;;13.50;99.90;;;;;;4831599;29;20064;-69
2023/07/07 03:58:01;;;;;;;7.65;6.05;;;13.50;99.90;;;;;;4831180;29;20061;-71
2023/07/07 04:00:27;;;;;;;8.30;6.95;;;13.50;99.90;;;;;;4813610;29;20041;-71
2023/07/07 04:02:54;;;;;;;5.93;4.95;;;13.50;99.90;;;;;;4828797;29;20037;-70
2023/07/07 04:05:20;;;;;;;7.13;4.43;;;13.60;99.90;;;;;;4846245;29;20045;-70
2023/07/07 04:07:46;;;;;;;4.32;2.88;;;13.60;99.90;;;;;;4845195;29;20048;-70
2023/07/07 04:10:13;;;;;;;3.90;2.90;;;13.60;99.90;;;;;;4823628;29;20074;-70
2023/07/07 04:12:39;;;;;;;4.88;2.95;;;13.60;99.90;;;;;;4825026;29;20044;-70
2023/07/07 04:15:06;;;;;;;3.35;2.58;;;13.60;99.90;;;;;;4832004;29;20037;-70
2023/07/07 04:17:33;;;;;;;4.78;2.85;;;13.70;99.90;;;;;;4832225;29;20052;-70
2023/07/07 04:20:00;;;;;;;2.95;2.55;;;13.80;99.90;;;;;;4814603;29;20044;-70
2023/07/07 04:22:26;;;;;;;3.95;2.75;;;13.80;99.90;;;;;;4826804;29;20379;-70
2023/07/07 04:25:20;;;;;;;2.50;2.22;;;13.90;99.90;;;;;;4822279;29;20037;-70
2023/07/07 04:27:47;;;;;;;2.78;2.25;;;14.00;99.90;;;;;;4827982;29;20056;-70
2023/07/07 04:30:13;;;;;;;5.50;1.98;;;14.00;99.90;;;;;;4838578;29;20055;-70
2023/07/07 04:32:40;;;;;;;4.13;2.20;;;14.10;99.90;;;;;;4827589;29;20290;-70
2023/07/07 04:35:08;;;;;;;3.45;2.45;;;14.20;99.90;;;;;;4831012;29;20037;-70
2023/07/07 04:37:34;;;;;;;3.15;2.30;;;14.30;99.90;;;;;;4832592;29;21142;-70
2023/07/07 04:40:01;;;;;;;3.05;2.05;;;14.40;99.90;;;;;;4798290;29;21542;-70
2023/07/07 04:42:27;;;;;;;3.13;1.92;;;14.50;99.90;;;;;;4827157;29;20048;-70
2023/07/07 04:44:53;;;;;;;3.78;2.50;;;14.70;99.90;;;;;;4821655;29;20040;-70
2023/07/07 04:47:20;;;;;;;5.85;3.13;;;14.80;99.90;;;;;;4849422;29;20033;-70
2023/07/07 04:49:46;;;;;;;3.20;2.58;;;14.90;99.90;;;;;;4846422;29;20060;-70
2023/07/07 04:52:13;;;;;;;4.78;2.65;;;15.10;99.90;;;;;;4821732;29;20039;-70
2023/07/07 04:54:40;;;;;;;5.05;2.67;;;15.20;99.90;;;;;;4819058;29;20126;-70
2023/07/07 04:57:06;;;;;;;4.70;3.50;;;15.30;99.90;;;;;;4835727;29;20053;-70
2023/07/07 04:59:33;;;;;;;5.38;3.47;;;15.50;99.90;;;;;;4811324;29;20045;-70
2023/07/07 05:01:59;;;;;;;3.70;3.05;;;15.70;99.90;;;;;;4827497;29;22045;-71
2023/07/07 05:04:27;;;;;;;4.43;2.70;;;15.80;99.90;;;;;;4831574;29;20045;-71
2023/07/07 05:06:54;;;;;;;4.22;2.78;;;15.90;99.90;;;;;;4828396;29;20049;-70
2023/07/07 05:09:20;;;;;;;3.30;2.55;;;16.10;99.90;;;;;;4841748;29;20048;-70
2023/07/07 05:11:46;;;;;;;5.03;3.47;;;16.30;99.90;;;;;;4832360;29;20037;-73
2023/07/07 05:14:13;;;;;;;4.95;2.70;;;16.40;99.90;;;;;;4799361;29;20875;-73
2023/07/07 05:16:39;;;;;;;3.25;2.45;;;16.50;99.90;;;;;;4815192;29;21563;-72
2023/07/07 05:19:07;;;;;;;3.10;2.33;;;16.70;99.90;;;;;;4811359;29;20146;-73
2023/07/07 05:21:33;;;;;;;3.88;2.67;;;16.80;99.90;;;;;;4827096;29;20532;-72
2023/07/07 05:24:00;;;;;;;4.63;2.65;;;17.00;99.90;;;;;;4815715;29;20045;-72
2023/07/07 05:26:27;;;;;;;3.00;2.10;;;17.10;99.90;;;;;;4826922;29;20045;-72
2023/07/07 05:28:57;;;;;;;4.95;2.60;;;17.30;99.90;;;;;;4838202;29;20049;-72
2023/07/07 05:31:23;;;;;;;6.63;2.90;;;17.40;99.90;;;;;;4832219;29;20056;-72
2023/07/07 05:33:50;;;;;;;4.97;3.88;;;17.60;99.90;;;;;;4826489;29;20044;-72
2023/07/07 05:36:16;;;;;;;4.45;3.03;;;17.70;99.90;;;;;;4801108;29;20048;-72
2023/07/07 05:38:43;;;;;;;4.05;2.53;;;17.80;99.90;;;;;;4825892;29;20037;-72
2023/07/07 05:41:10;;;;;;;4.32;2.72;;;17.90;99.90;;;;;;4799554;29;20046;-70
2023/07/07 05:43:36;;;;;;;3.67;2.67;;;18.10;99.90;;;;;;4825739;29;20033;-70
2023/07/07 05:46:09;;;;;;;4.13;2.67;;;18.20;99.90;;;;;;4823535;29;20041;-71
2023/07/07 05:48:35;;;;;;;3.25;2.28;;;18.40;99.90;;;;;;4840526;29;20033;-70
2023/07/07 05:51:05;;;;;;;5.50;2.40;;;18.60;99.90;;;;;;4822607;29;20434;-71
2023/07/07 05:53:32;;;;;;;3.80;2.72;;;18.70;99.90;;;;;;4831516;29;20048;-70
2023/07/07 05:56:08;;;;;;;3.33;2.75;;;18.80;99.90;;;;;;4833114;29;22097;-71
2023/07/07 05:58:35;;;;;;;6.93;2.95;;;18.90;99.90;;;;;;4819196;29;20489;-71
2023/07/07 06:01:02;;;;;;;6.50;3.45;;;19.10;99.90;;;;;;4815805;29;20033;-71
2023/07/07 06:03:31;;;;;;;4.90;2.80;;;19.10;99.90;;;;;;4813447;29;20045;-71
2023/07/07 06:05:58;;;;;;;7.25;4.20;;;19.20;99.90;;;;;;4840984;29;20056;-71
2023/07/07 06:08:24;;;;;;;4.28;2.67;;;19.40;99.90;;;;;;4831363;29;20040;-71
2023/07/07 06:10:51;;;;;;;4.38;2.13;;;19.50;99.90;;;;;;4826546;29;21532;-71
2023/07/07 06:13:18;;;;;;;5.40;3.33;;;19.60;99.90;;;;;;4817497;29;20044;-71
2023/07/07 06:15:44;;;;;;;4.25;2.58;;;19.80;99.90;;;;;;4835242;29;20048;-70
2023/07/07 06:18:11;;;;;;;4.38;2.20;;;20.00;99.90;;;;;;4836559;29;20052;-71
2023/07/07 06:20:37;;;;;;;4.72;2.58;;;20.20;99.90;;;;;;4833684;29;20039;-71
2023/07/07 06:23:05;;;;;;;4.18;2.47;;;20.60;99.90;;;;;;4832080;29;20052;-70
2023/07/07 06:25:31;;;;;;;3.55;2.42;;;20.90;99.90;;;;;;4843125;29;20052;-72
2023/07/07 06:27:57;;;;;;;4.60;2.65;;;21.30;99.90;;;;;;4847409;29;20119;-71
2023/07/07 06:30:24;;;;;;;3.63;2.50;;;21.60;99.90;;;;;;4840003;29;20045;-70
2023/07/07 06:32:50;;;;;;;3.58;2.35;;;21.70;99.90;;;;;;4831300;29;20025;-71
2023/07/07 06:35:16;;;;;;;3.95;2.85;;;21.80;99.90;;;;;;4834826;29;20037;-70
2023/07/07 06:37:43;;;;;;;4.60;2.78;;;22.00;99.90;;;;;;4836779;29;20043;-69
2023/07/07 06:40:10;;;;;;;3.80;2.55;;;22.10;99.90;;;;;;4833279;29;20036;-70
2023/07/07 06:42:36;;;;;;;5.22;2.65;;;22.00;99.90;;;;;;4833625;29;20041;-69
2023/07/07 06:45:08;;;;;;;3.83;2.53;;;22.00;99.90;;;;;;4829401;29;20045;-70
2023/07/07 06:47:35;;;;;;;6.85;2.55;;;22.00;99.90;;;;;;4846626;29;20040;-69
2023/07/07 06:50:02;;;;;;;4.22;2.92;;;22.10;99.90;;;;;;4840252;29;20417;-69
2023/07/07 06:52:28;;;;;;;4.68;2.35;;;22.20;99.90;;;;;;4829477;29;20037;-69
2023/07/07 06:54:56;;;;;;;4.25;2.55;;;22.30;99.90;;;;;;4832251;29;20036;-69
2023/07/07 06:57:22;;;;;;;4.60;2.38;;;22.30;99.90;;;;;;4835800;29;20521;-69
2023/07/07 06:59:49;;;;;;;4.63;2.97;;;22.40;99.90;;;;;;4828751;29;20037;-69
2023/07/07 07:02:16;;;;;;;4.68;2.88;;;22.50;99.90;;;;;;4829784;29;20041;-69
2023/07/07 07:04:43;;;;;;;4.60;2.50;;;22.60;99.90;;;;;;4835673;29;20056;-69
2023/07/07 07:07:09;;;;;;;6.38;3.33;;;22.70;99.90;;;;;;4829916;29;20041;-69
2023/07/07 07:09:35;;;;;;;8.85;3.47;;;22.80;99.90;;;;;;4854205;29;20040;-69
2023/07/07 07:12:02;;;;;;;5.93;3.55;;;22.90;99.90;;;;;;4830404;29;20040;-69
2023/07/07 07:14:28;;;;;;;7.65;2.55;;;22.90;99.90;;;;;;4833762;29;20029;-69
2023/07/07 07:16:54;;;;;;;4.63;2.15;;;23.00;99.90;;;;;;4833510;29;20041;-69
2023/07/07 07:19:21;;;;;;;4.70;2.63;;;23.10;99.90;;;;;;4829589;29;20055;-69
2023/07/07 07:21:47;;;;;;;4.75;2.00;;;23.30;99.90;;;;;;4812133;29;20033;-70
2023/07/07 07:24:13;;;;;;;5.07;2.38;;;23.40;99.90;;;;;;4831369;29;20033;-69
2023/07/07 07:26:40;;;;;;;6.72;3.28;;;23.50;99.90;;;;;;4830876;29;20045;-69
2023/07/07 07:29:06;;;;;;;4.53;2.00;;;23.60;99.90;;;;;;4825537;29;20049;-69
2023/07/07 07:31:32;;;;;;;5.07;2.47;;;23.70;99.90;;;;;;4832284;29;20060;-69
2023/07/07 07:34:26;;;;;;;5.40;2.30;;;23.90;99.90;;;;;;4801273;29;20052;-70
2023/07/07 07:36:53;;;;;;;3.38;1.45;;;24.00;99.90;;;;;;4849138;29;20045;-69
2023/07/07 07:39:20;;;;;;;3.97;1.73;;;24.10;99.90;;;;;;4828224;29;20071;-70
2023/07/07 07:41:49;;;;;;;4.78;1.50;;;24.20;99.90;;;;;;4827917;29;20045;-69
2023/07/07 07:44:16;;;;;;;4.63;2.03;;;24.30;99.90;;;;;;4831353;29;20033;-70
2023/07/07 07:46:44;;;;;;;4.55;2.30;;;24.40;99.90;;;;;;4838995;29;20481;-70
2023/07/07 07:49:11;;;;;;;3.80;1.95;;;24.50;99.90;;;;;;4841136;29;20056;-70
2023/07/07 07:51:39;;;;;;;5.35;2.08;;;24.60;99.90;;;;;;4839923;29;23256;-70
2023/07/07 07:54:07;;;;;;;4.05;1.80;;;24.60;99.90;;;;;;4816888;29;20497;-70
2023/07/07 07:56:33;;;;;;;3.97;1.63;;;24.80;99.90;;;;;;4831684;29;20053;-70
2023/07/07 07:59:00;;;;;;;4.13;1.92;;;24.90;99.30;;;;;;4813807;29;20040;-70
2023/07/07 08:01:27;;;;;;;5.65;1.80;;;25.00;98.80;;;;;;4828247;29;20045;-70
2023/07/07 08:03:54;;;;;;;3.80;1.38;;;25.10;98.60;;;;;;4831498;29;20072;-70
2023/07/07 08:06:21;;;;;;;3.60;1.45;;;25.20;98.30;;;;;;4837464;29;20541;-70
2023/07/07 08:08:47;;;;;;;4.65;1.08;;;25.30;97.30;;;;;;4843751;29;20037;-69
2023/07/07 08:11:17;;;;;;;2.88;1.10;;;25.40;96.70;;;;;;4844607;29;20092;-70
2023/07/07 08:13:44;;;;;;;2.40;1.20;;;25.50;96.60;;;;;;4834256;29;20418;-70
2023/07/07 08:16:12;;;;;;;3.80;1.27;;;25.70;96.00;;;;;;4832602;29;20075;-70
2023/07/07 08:18:39;;;;;;;7.30;2.50;;;25.80;95.40;;;;;;4832031;29;20041;-70
2023/07/07 08:21:06;;;;;;;3.72;2.08;;;25.80;94.80;;;;;;4834740;29;20040;-71
2023/07/07 08:23:33;;;;;;;2.55;1.58;;;25.90;94.50;;;;;;4832422;29;20040;-70
2023/07/07 08:26:00;;;;;;;3.58;1.85;;;25.90;94.00;;;;;;4837274;29;20052;-69
2023/07/07 08:28:26;;;;;;;2.22;1.35;;;26.00;93.70;;;;;;4815079;29;20040;-69
2023/07/07 08:30:52;;;;;;;3.28;0.93;;;26.10;93.90;;;;;;4840089;29;20041;-69
2023/07/07 08:33:19;;;;;;;4.45;1.25;;;26.30;93.00;;;;;;4817392;29;20047;-69
2023/07/07 08:35:45;;;;;;;4.30;1.95;;;26.30;92.80;;;;;;4832771;29;20041;-69
2023/07/07 08:38:11;;;;;;;3.83;1.40;;;26.50;92.30;;;;;;4834221;29;20048;-69
2023/07/07 08:40:47;;;;;;;3.67;1.00;;;26.60;92.10;;;;;;4829303;29;20041;-68
2023/07/07 08:43:15;;;;;;;2.38;0.90;;;26.70;91.70;;;;;;4828212;29;20037;-69
2023/07/07 08:45:50;;;;;;;2.55;0.90;;;26.80;91.70;;;;;;4832822;29;20406;-69
2023/07/07 08:48:32;;;;;;;2.95;1.05;;;27.00;91.60;;;;;;4839366;29;20041;-69
2023/07/07 08:51:06;;;;;;;2.95;1.02;;;27.10;91.20;;;;;;4840036;29;20053;-69
2023/07/07 08:53:44;;;;;;;1.80;0.93;;;27.20;90.90;;;;;;4833861;29;20029;-69
2023/07/07 08:56:25;;;;;;;3.05;0.90;;;27.30;90.70;;;;;;4832209;29;20037;-68
2023/07/07 08:58:58;;;;;;;1.55;0.85;;;27.40;90.30;;;;;;4814086;29;20068;-69
2023/07/07 09:01:53;;;;;;;4.65;1.42;;;27.50;90.10;;;;;;4828601;29;20037;-69
2023/07/07 09:04:47;;;;;;;1.92;0.98;;;27.50;88.70;;;;;;4830764;29;20033;-68
2023/07/07 09:07:54;;;;;;;2.97;1.15;;;27.60;88.10;;;;;;4803796;29;20053;-69
2023/07/07 09:10:24;;;;;;;2.97;1.02;;;27.60;86.40;;;;;;4819381;29;20052;-69
2023/07/07 09:13:16;;;;;;;3.05;1.25;;;27.60;85.00;;;;;;4839984;29;20150;-69
2023/07/07 09:15:51;;;;;;;1.48;0.80;;;27.70;84.40;;;;;;4829636;29;20056;-69
2023/07/07 09:18:24;;;;;;;2.10;0.80;;;27.70;84.00;;;;;;4836279;29;20045;-69
2023/07/07 09:20:57;;;;;;;3.08;0.80;;;27.70;81.60;;;;;;4830379;29;20036;-69
2023/07/07 09:23:28;;;;;;;2.30;0.88;;;27.80;82.40;;;;;;4812928;29;20037;-69
2023/07/07 09:26:40;;;;;;;2.30;0.85;;;27.90;82.00;;;;;;4814894;29;20040;-69
2023/07/07 09:29:16;;;;;;;3.70;1.00;;;28.00;81.70;;;;;;4835943;29;20057;-69
2023/07/07 09:31:43;;;;;;;1.63;0.90;;;28.10;81.00;;;;;;4822974;29;21487;-69
2023/07/07 09:34:11;;;;;;;1.98;0.88;;;28.20;80.60;;;;;;4803529;29;20037;-68
2023/07/07 09:37:04;;;;;;;2.72;1.05;;;28.30;79.10;;;;;;4830839;29;20037;-69
2023/07/07 09:39:40;;;;;;;1.48;0.70;;;28.40;79.20;;;;;;4813852;29;20057;-70
2023/07/07 09:42:36;;;;;;;1.55;0.80;;;28.40;79.40;;;;;;4825272;29;20051;-71
2023/07/07 09:45:21;;;;;;;1.50;0.88;;;28.50;78.80;;;;;;4834539;29;20508;-71
2023/07/07 09:48:09;;;;;;;2.20;0.95;;;28.70;77.60;;;;;;4842513;29;20053;-70
2023/07/07 09:50:46;;;;;;;3.72;1.10;;;28.70;76.90;;;;;;4855789;29;20475;-69
2023/07/07 09:53:32;;;;;;;2.28;0.77;;;28.80;77.00;;;;;;4833694;29;20044;-68
2023/07/07 09:55:59;;;;;;;2.72;0.60;;;28.90;76.00;;;;;;4831217;29;20059;-69
2023/07/07 09:58:41;;;;;;;1.88;0.88;;;29.00;75.50;;;;;;4832379;29;20061;-69
2023/07/07 10:01:10;;;;;;;1.65;0.50;;;29.00;74.30;;;;;;4816352;29;20550;-72
2023/07/07 10:03:45;;;;;;;1.38;0.68;;;29.10;74.20;;;;;;4831396;29;20384;-69
2023/07/07 10:06:27;;;;;;;2.05;0.90;;;29.20;72.60;;;;;;4835604;29;20048;-69
2023/07/07 10:08:53;;;;;;;1.35;0.73;;;29.20;71.80;;;;;;4844658;29;20049;-69
2023/07/07 10:11:28;;;;;;;2.05;0.82;;;29.10;71.80;;;;;;4844987;29;20049;-69
2023/07/07 10:13:56;;;;;;;2.80;0.80;;;29.20;71.30;;;;;;4836768;29;20037;-69
2023/07/07 10:16:32;;;;;;;3.63;0.90;;;29.20;70.80;;;;;;4833416;29;20021;-70
2023/07/07 10:19:02;;;;;;;1.70;0.70;;;29.30;69.80;;;;;;4831828;29;20040;-69
2023/07/07 10:21:28;;;;;;;1.60;0.90;;;29.40;69.80;;;;;;4831440;29;20485;-69
2023/07/07 10:23:54;;;;;;;4.18;1.02;;;29.40;69.90;;;;;;4832350;29;20080;-69
2023/07/07 10:26:22;;;;;;;1.88;0.70;;;29.50;69.20;;;;;;4836389;29;20048;-69
2023/07/07 10:28:48;;;;;;;1.83;0.80;;;29.50;69.80;;;;;;4844499;29;20037;-69
2023/07/07 10:31:16;;;;;;;2.33;0.70;;;29.60;69.60;;;;;;4846356;29;20461;-69
2023/07/07 10:33:43;;;;;;;2.47;0.80;;;29.70;69.20;;;;;;4824591;29;20495;-70
2023/07/07 10:36:24;;;;;;;2.70;2.08;;;29.90;69.10;;;;;;4837034;29;20036;-70
2023/07/07 10:38:55;;;;;;;2.70;1.67;;;30.10;69.30;;;;;;4835184;29;20033;-71
2023/07/07 10:41:26;;;;;;;3.80;1.67;;;30.40;68.50;;;;;;4837293;29;20037;-71
2023/07/07 10:43:53;;;;;;;3.00;1.67;;;30.70;68.00;;;;;;4835721;29;20037;-71
2023/07/07 10:46:19;;;;;;;2.13;1.00;;;30.90;67.90;;;;;;4836526;29;20037;-71
2023/07/07 10:48:47;;;;;;;3.67;1.00;;;31.10;67.10;;;;;;4838904;29;20045;-70
2023/07/07 10:51:52;;;;;;;3.15;1.02;;;31.40;65.80;;;;;;4846602;29;20033;-68
2023/07/07 10:54:45;;;;;;;2.00;0.80;;;31.60;64.70;;;;;;4845016;29;20049;-69
2023/07/07 10:57:42;;;;;;;3.22;1.33;;;31.80;64.10;;;;;;4803749;29;20509;-69
2023/07/07 11:00:27;;;;;;;2.05;0.98;;;31.90;64.40;;;;;;4817093;29;20068;-68
2023/07/07 11:03:40;;;;;;;2.80;1.13;;;32.30;64.40;;;;;;4832784;29;20033;-68
2023/07/07 11:06:18;;;;;;;2.05;0.82;;;32.60;63.30;;;;;;4807468;29;21230;-68
2023/07/07 11:09:03;;;;;;;3.35;0.82;;;32.90;62.60;;;;;;4838852;29;20060;-68
2023/07/07 11:11:42;;;;;;;1.70;0.80;;;33.20;62.20;;;;;;4841137;29;20064;-68
2023/07/07 11:14:15;;;;;;;2.55;0.90;;;33.50;61.30;;;;;;4843937;29;20270;-68
2023/07/07 11:17:03;;;;;;;3.65;1.02;;;33.90;60.80;;;;;;4834735;29;20193;-68
2023/07/07 11:19:32;;;;;;;4.15;0.93;;;34.00;59.70;;;;;;4837664;29;20052;-69
2023/07/07 11:22:23;;;;;;;2.78;0.90;;;34.20;58.20;;;;;;4833313;29;20040;-70
2023/07/07 11:25:17;;;;;;;5.22;1.00;;;34.50;57.90;;;;;;4849466;29;20040;-70
2023/07/07 11:28:04;;;;;;;2.30;0.80;;;34.90;57.60;;;;;;4836513;29;20057;-74
2023/07/07 11:31:03;;;;;;;1.85;0.80;;;35.00;55.80;;;;;;4842588;29;20446;-72
2023/07/07 11:34:06;;;;;;;6.15;1.50;;;35.30;55.40;;;;;;4845549;29;20041;-69
2023/07/07 11:37:20;;;;;;;6.80;4.97;;;35.70;55.10;;;;;;4836532;29;20045;-71
2023/07/07 11:40:09;;;;;;;2.50;1.10;;;35.80;54.00;;;;;;4732372;29;20042;-71
2023/07/07 11:43:09;;;;;;;6.07;4.07;;;36.10;53.50;;;;;;4756480;29;20099;-73
2023/07/07 11:46:04;;;;;;;2.03;1.15;;;36.40;53.60;;;;;;4797759;29;20051;-75
2023/07/07 11:48:57;;;;;;;2.83;0.80;;;36.70;51.80;;;;;;4815138;29;20509;-72
2023/07/07 11:51:39;;;;;;;2.58;1.05;;;36.60;51.30;;;;;;4845011;29;20044;-73
2023/07/07 11:54:26;;;;;;;2.78;1.10;;;36.80;50.60;;;;;;4844876;29;20342;-73
2023/07/07 11:56:52;;;;;;;2.78;1.17;;;36.80;50.10;;;;;;4835982;29;20657;-70
2023/07/07 11:59:48;;;;;;;2.67;0.98;;;37.00;50.10;;;;;;4831390;29;20081;-70
2023/07/07 12:02:29;;;;;;;2.38;1.00;;;37.30;49.50;;;;;;4815608;29;20037;-69
2023/07/07 12:04:59;;;;;;;2.13;0.95;;;37.50;48.60;;;;;;4832378;29;20037;-69
2023/07/07 12:07:39;;;;;;;7.43;1.23;;;37.80;48.90;;;;;;4831208;29;20576;-72
2023/07/07 12:10:17;;;;;;;2.22;0.98;;;38.10;48.70;;;;;;4835930;29;20045;-72
2023/07/07 12:12:54;;;;;;;2.53;1.42;;;38.30;48.10;;;;;;4845220;29;20033;-72
2023/07/07 12:15:29;;;;;;;3.85;2.60;;;38.40;48.00;;;;;;4839425;29;20043;-72
2023/07/07 12:18:17;;;;;;;4.68;4.05;;;38.60;46.90;;;;;;4831458;29;20033;-71
2023/07/07 12:20:50;;;;;;;5.28;2.60;;;38.90;46.80;;;;;;4829839;29;20037;-69
2023/07/07 12:23:21;;;;;;;2.97;1.90;;;39.10;46.50;;;;;;4831944;29;20041;-71
2023/07/07 12:25:47;;;;;;;2.47;1.58;;;39.30;46.30;;;;;;4832139;29;21848;-72
2023/07/07 12:28:14;;;;;;;4.68;3.03;;;39.40;45.30;;;;;;4830457;29;20058;-71
2023/07/07 12:30:48;;;;;;;2.80;1.75;;;39.40;45.30;;;;;;4843257;29;20045;-69
2023/07/07 12:33:15;;;;;;;5.25;1.33;;;39.70;45.10;;;;;;4820567;29;20519;-69
2023/07/07 12:35:53;;;;;;;6.38;1.30;;;40.00;45.50;;;;;;4838165;29;20673;-69
2023/07/07 12:38:34;;;;;;;1.85;1.10;;;40.10;44.40;;;;;;4831517;29;20503;-68
2023/07/07 12:41:10;;;;;;;2.33;0.90;;;40.20;44.40;;;;;;4829148;29;20063;-67
2023/07/07 12:44:04;;;;;;;2.53;1.10;;;40.30;43.70;;;;;;4827289;29;21223;-68
2023/07/07 12:46:36;;;;;;;2.35;1.10;;;40.60;44.00;;;;;;4831936;29;20642;-69
2023/07/07 12:49:38;;;;;;;3.67;2.10;;;40.90;43.90;;;;;;4827572;29;20049;-69
2023/07/07 12:52:10;;;;;;;4.20;1.25;;;41.30;43.00;;;;;;4827856;29;20633;-71
2023/07/07 12:54:36;;;;;;;6.45;3.88;;;41.40;42.70;;;;;;4845825;29;20025;-71
2023/07/07 12:57:16;;;;;;;2.83;1.10;;;41.40;42.50;;;;;;4848535;29;20075;-73
2023/07/07 12:59:43;;;;;;;3.58;1.10;;;41.50;42.30;;;;;;4831515;29;20048;-71
2023/07/07 13:02:22;;;;;;;2.83;0.90;;;41.60;41.90;;;;;;4814522;29;20092;-75
2023/07/07 13:05:14;;;;;;;2.22;1.00;;;41.90;41.40;;;;;;4833463;29;22734;-72
2023/07/07 13:07:41;;;;;;;2.22;0.82;;;42.20;41.70;;;;;;4832543;29;21145;-73
2023/07/07 13:10:33;;;;;;;2.00;1.10;;;42.50;41.40;;;;;;4831199;29;20033;-73
2023/07/07 13:13:26;;;;;;;1.77;1.00;;;42.90;40.70;;;;;;4839557;29;20045;-74
2023/07/07 13:15:56;;;;;;;2.83;0.93;;;42.90;39.90;;;;;;4832321;29;20493;-73